Time;durP1;ratioP1;P1;durP2;ratioP2;P2;SDS_P1;SDS_P2;PMS_P1;PMS_P2;Temp;Humidity;BMP_temperature;BMP_pressure;BME280_temperature;BME280_humidity;BME280_pressure;Samples;Min_cycle;Max_cycle;Signal;HPM_P1;HPM_P2
2022/06/17 00:02:12;;;;;;;5.18;4.07;;;14.60;99.90;;;;;;5054341;28;20048;-62
2022/06/17 00:04:38;;;;;;;7.55;4.65;;;14.50;99.90;;;;;;5070550;28;20044;-63
2022/06/17 00:07:08;;;;;;;4.88;4.32;;;14.50;99.90;;;;;;5071657;28;20051;-62
2022/06/17 00:09:35;;;;;;;13.20;4.72;;;14.40;99.90;;;;;;5070552;28;20142;-63
2022/06/17 00:12:02;;;;;;;5.88;3.80;;;14.40;99.90;;;;;;5071746;28;20040;-61
2022/06/17 00:14:31;;;;;;;6.20;3.78;;;14.40;99.90;;;;;;5070634;28;20529;-62
2022/06/17 00:16:58;;;;;;;5.00;3.80;;;14.40;99.90;;;;;;5070331;28;20119;-64
2022/06/17 00:19:24;;;;;;;7.05;4.43;;;14.40;99.90;;;;;;5069892;28;20040;-63
2022/06/17 00:21:52;;;;;;;5.63;4.70;;;14.40;99.90;;;;;;5071575;28;20095;-62
2022/06/17 00:24:24;;;;;;;5.40;4.75;;;14.40;99.90;;;;;;5070826;28;20043;-63
2022/06/17 00:26:51;;;;;;;6.60;4.90;;;14.40;99.90;;;;;;5070380;28;20045;-62
2022/06/17 00:29:19;;;;;;;6.65;4.53;;;14.40;99.90;;;;;;5072410;28;20104;-61
2022/06/17 00:31:45;;;;;;;8.15;5.38;;;14.30;99.90;;;;;;5071853;28;20043;-62
2022/06/17 00:34:11;;;;;;;8.63;5.28;;;14.40;99.90;;;;;;5070250;28;20040;-62
2022/06/17 00:36:37;;;;;;;7.75;4.80;;;14.40;99.90;;;;;;5071471;28;20109;-62
2022/06/17 00:39:18;;;;;;;8.10;5.45;;;14.40;99.90;;;;;;5070016;28;20079;-63
2022/06/17 00:41:50;;;;;;;6.50;5.00;;;14.40;99.90;;;;;;5070330;28;20045;-62
2022/06/17 00:44:37;;;;;;;6.15;4.65;;;14.40;99.90;;;;;;5071470;28;20036;-62
2022/06/17 00:47:15;;;;;;;6.53;5.30;;;14.40;99.90;;;;;;5071264;28;20036;-61
2022/06/17 00:49:43;;;;;;;7.32;4.90;;;14.50;99.90;;;;;;5070464;28;20140;-63
2022/06/17 00:52:21;;;;;;;6.63;5.10;;;14.50;99.90;;;;;;5069853;28;20099;-61
2022/06/17 00:54:54;;;;;;;5.78;5.07;;;14.50;99.90;;;;;;5070094;28;20068;-61
2022/06/17 00:57:25;;;;;;;;;;;14.50;99.90;;;;;;5071666;28;20182;-63
2022/06/17 01:00:04;;;;;;;9.77;5.85;;;14.50;99.90;;;;;;5069835;28;20328;-61
2022/06/17 01:02:37;;;;;;;8.10;5.35;;;14.50;99.90;;;;;;5071277;28;20390;-62
2022/06/17 01:05:04;;;;;;;5.60;5.00;;;14.50;99.90;;;;;;5069916;28;20040;-62
2022/06/17 01:07:36;;;;;;;10.85;5.55;;;14.50;99.90;;;;;;5068319;28;20127;-62
2022/06/17 01:10:09;;;;;;;7.43;6.10;;;14.60;99.90;;;;;;5071094;28;20036;-65
2022/06/17 01:12:53;;;;;;;6.65;5.40;;;14.60;99.90;;;;;;5071103;28;20044;-62
2022/06/17 01:15:22;;;;;;;8.63;5.53;;;14.60;99.90;;;;;;5069841;28;20450;-63
2022/06/17 01:17:49;;;;;;;8.43;5.60;;;14.60;99.90;;;;;;5069493;28;20407;-63
2022/06/17 01:20:16;;;;;;;7.55;5.55;;;14.60;99.90;;;;;;5070858;28;20064;-63
2022/06/17 01:22:48;;;;;;;9.60;5.65;;;14.60;99.90;;;;;;5069649;28;20513;-63
2022/06/17 01:25:15;;;;;;;6.70;5.60;;;14.60;99.90;;;;;;5070521;28;20072;-61
2022/06/17 01:27:44;;;;;;;8.57;5.70;;;14.60;99.90;;;;;;5069526;28;20293;-65
2022/06/17 01:30:15;;;;;;;7.10;5.50;;;14.60;99.90;;;;;;5069598;28;20044;-65
2022/06/17 01:32:51;;;;;;;8.85;5.72;;;14.60;99.90;;;;;;5070602;28;20068;-65
2022/06/17 01:35:19;;;;;;;10.02;5.95;;;14.60;99.90;;;;;;5069396;28;20048;-65
2022/06/17 01:37:45;;;;;;;7.45;5.47;;;14.60;99.90;;;;;;5067910;28;20052;-64
2022/06/17 01:40:12;;;;;;;7.50;5.53;;;14.60;99.90;;;;;;5065306;28;20039;-66
2022/06/17 01:42:39;;;;;;;10.23;6.25;;;14.60;99.90;;;;;;5068848;28;20118;-65
2022/06/17 01:45:07;;;;;;;8.20;5.43;;;14.60;99.90;;;;;;5068465;28;20032;-65
2022/06/17 01:47:34;;;;;;;6.78;5.53;;;14.50;99.90;;;;;;5069408;28;20039;-63
2022/06/17 01:50:05;;;;;;;7.60;5.90;;;14.60;99.90;;;;;;5068742;28;20380;-64
2022/06/17 01:53:01;;;;;;;8.15;5.90;;;14.50;99.90;;;;;;5068588;28;20135;-62
2022/06/17 01:55:40;;;;;;;8.20;5.75;;;14.50;99.90;;;;;;5068459;28;20048;-62
2022/06/17 01:58:32;;;;;;;8.73;5.50;;;14.50;99.90;;;;;;5069747;28;20068;-65
2022/06/17 02:00:58;;;;;;;8.73;6.23;;;14.50;99.90;;;;;;5068426;28;20045;-62
2022/06/17 02:03:28;;;;;;;8.50;5.72;;;14.50;99.90;;;;;;5068569;28;20086;-61
2022/06/17 02:06:05;;;;;;;6.45;5.10;;;14.50;99.90;;;;;;5068449;28;20434;-62
2022/06/17 02:08:31;;;;;;;8.45;5.13;;;14.50;99.90;;;;;;5052039;28;20047;-62
2022/06/17 02:10:56;;;;;;;5.82;5.20;;;14.50;99.90;;;;;;5067899;28;20036;-61
2022/06/17 02:13:23;;;;;;;6.95;5.68;;;14.50;99.90;;;;;;5069965;28;20039;-62
2022/06/17 02:15:49;;;;;;;6.75;5.40;;;14.40;99.90;;;;;;5069731;28;20636;-63
2022/06/17 02:18:18;;;;;;;8.98;6.30;;;14.50;99.90;;;;;;5068434;28;20041;-62
2022/06/17 02:20:48;;;;;;;7.07;5.82;;;14.40;99.90;;;;;;5068499;28;20072;-63
2022/06/17 02:23:14;;;;;;;9.88;7.00;;;14.40;99.90;;;;;;5068709;28;20564;-61
2022/06/17 02:25:44;;;;;;;10.43;6.60;;;14.40;99.90;;;;;;5068753;28;20076;-62
2022/06/17 02:28:11;;;;;;;17.38;6.20;;;14.40;99.90;;;;;;5068668;28;20049;-62
2022/06/17 02:30:40;;;;;;;9.38;6.90;;;14.40;99.90;;;;;;5068529;28;20556;-62
2022/06/17 02:33:08;;;;;;;9.10;6.63;;;14.40;99.90;;;;;;5068477;28;20040;-65
2022/06/17 02:35:38;;;;;;;7.97;6.47;;;14.40;99.90;;;;;;5068857;28;20471;-64
2022/06/17 02:38:05;;;;;;;11.68;7.13;;;14.40;99.90;;;;;;5068097;28;20054;-65
2022/06/17 02:40:40;;;;;;;8.90;7.72;;;14.40;99.90;;;;;;5068523;28;20387;-64
2022/06/17 02:43:15;;;;;;;9.20;7.63;;;14.40;99.90;;;;;;5068367;28;20048;-65
2022/06/17 02:45:50;;;;;;;11.23;7.93;;;14.40;99.90;;;;;;5067840;28;20033;-62
2022/06/17 02:48:27;;;;;;;10.20;7.60;;;14.40;99.90;;;;;;5068218;28;20058;-64
2022/06/17 02:50:56;;;;;;;10.93;7.28;;;14.30;99.90;;;;;;5069696;28;20402;-62
2022/06/17 02:53:30;;;;;;;9.48;8.00;;;14.40;99.90;;;;;;5068271;28;20046;-62
2022/06/17 02:55:57;;;;;;;9.82;8.23;;;14.40;99.90;;;;;;5068159;28;20041;-63
2022/06/17 02:58:29;;;;;;;10.52;8.20;;;14.40;99.90;;;;;;5069919;28;20040;-64
2022/06/17 03:00:57;;;;;;;9.52;8.52;;;14.40;99.90;;;;;;5072398;28;20039;-65
2022/06/17 03:03:24;;;;;;;11.18;8.80;;;14.40;99.90;;;;;;5073512;28;20406;-64
2022/06/17 03:05:50;;;;;;;11.38;8.13;;;14.40;99.90;;;;;;5073372;28;20051;-66
2022/06/17 03:08:19;;;;;;;14.02;8.68;;;14.40;99.90;;;;;;5071969;28;20086;-65
2022/06/17 03:10:45;;;;;;;12.27;8.27;;;14.40;99.90;;;;;;5073023;28;20094;-65
2022/06/17 03:13:39;;;;;;;9.20;8.25;;;14.40;99.90;;;;;;5073156;28;20032;-62
2022/06/17 03:16:09;;;;;;;10.05;7.72;;;14.50;99.90;;;;;;5070391;28;20041;-62
2022/06/17 03:18:35;;;;;;;13.50;9.50;;;14.50;99.90;;;;;;5072855;28;20047;-62
2022/06/17 03:21:02;;;;;;;9.63;8.57;;;14.50;99.90;;;;;;5072045;28;20041;-63
2022/06/17 03:23:40;;;;;;;12.90;9.75;;;14.50;99.90;;;;;;5073166;28;20123;-62
2022/06/17 03:26:13;;;;;;;9.98;8.68;;;14.60;99.90;;;;;;5073118;28;20040;-61
2022/06/17 03:28:43;;;;;;;12.05;9.48;;;14.60;99.90;;;;;;5071659;28;20503;-61
2022/06/17 03:31:24;;;;;;;11.38;9.10;;;14.60;99.90;;;;;;5068493;28;20072;-62
2022/06/17 03:34:07;;;;;;;12.57;9.07;;;14.60;99.90;;;;;;5054416;28;20052;-63
2022/06/17 03:36:32;;;;;;;;;;;14.60;99.90;;;;;;5071254;28;20777;-62
2022/06/17 03:39:03;;;;;;;11.00;8.88;;;14.60;99.90;;;;;;5071582;28;20002;-62
2022/06/17 03:41:54;;;;;;;10.43;9.18;;;14.60;99.90;;;;;;5071328;28;20383;-62
2022/06/17 03:44:26;;;;;;;13.05;10.15;;;14.60;99.90;;;;;;5071059;28;20041;-62
2022/06/17 03:46:58;;;;;;;10.55;8.55;;;14.70;99.90;;;;;;5070731;28;20040;-64
2022/06/17 03:49:31;;;;;;;11.18;9.35;;;14.70;99.90;;;;;;5072235;28;20439;-64
2022/06/17 03:52:05;;;;;;;13.52;9.15;;;14.70;99.90;;;;;;5072309;28;20052;-64
2022/06/17 03:54:31;;;;;;;10.65;9.52;;;14.80;99.90;;;;;;5070823;28;20036;-65
2022/06/17 03:56:58;;;;;;;12.13;9.18;;;14.80;99.90;;;;;;5072345;28;20060;-63
2022/06/17 03:59:29;;;;;;;12.43;9.07;;;14.80;99.90;;;;;;5072417;28;20040;-64
2022/06/17 04:02:00;;;;;;;11.63;9.60;;;14.90;99.90;;;;;;5070746;28;20048;-64
2022/06/17 04:04:32;;;;;;;11.55;8.98;;;14.90;99.90;;;;;;5071227;28;20533;-62
2022/06/17 04:06:58;;;;;;;12.40;9.00;;;14.90;99.90;;;;;;5070886;28;20416;-62
2022/06/17 04:09:29;;;;;;;12.38;8.80;;;14.90;99.90;;;;;;5071922;28;20036;-65
2022/06/17 04:12:01;;;;;;;13.45;8.75;;;15.10;99.90;;;;;;5070792;28;20040;-65
2022/06/17 04:15:08;;;;;;;13.10;10.15;;;15.10;99.90;;;;;;5072381;28;20039;-62
2022/06/17 04:17:40;;;;;;;12.10;9.43;;;15.30;99.90;;;;;;5070072;28;20097;-64
2022/06/17 04:20:20;;;;;;;11.00;9.20;;;15.30;99.90;;;;;;5071903;28;20150;-65
2022/06/17 04:22:49;;;;;;;9.82;8.80;;;15.40;99.90;;;;;;5070613;28;20115;-63
2022/06/17 04:25:28;;;;;;;15.07;9.40;;;15.40;99.90;;;;;;5070680;28;20036;-62
2022/06/17 04:27:57;;;;;;;11.63;8.55;;;15.40;99.90;;;;;;5071031;28;20105;-63
2022/06/17 04:30:29;;;;;;;10.25;9.18;;;15.40;99.90;;;;;;5070343;28;20115;-65
2022/06/17 04:33:01;;;;;;;15.52;8.90;;;15.40;99.90;;;;;;5070489;28;20051;-65
2022/06/17 04:35:27;;;;;;;10.23;8.85;;;15.40;99.90;;;;;;5071696;28;20045;-62
2022/06/17 04:37:53;;;;;;;11.07;8.73;;;15.50;99.90;;;;;;5070220;28;20045;-63
2022/06/17 04:40:34;;;;;;;12.88;8.32;;;15.50;99.90;;;;;;5053933;28;20067;-64
2022/06/17 04:43:02;;;;;;;12.38;8.32;;;15.50;99.90;;;;;;5071877;28;20041;-65
2022/06/17 04:45:29;;;;;;;14.05;9.10;;;15.60;99.90;;;;;;5071311;28;20029;-65
2022/06/17 04:47:55;;;;;;;9.65;8.45;;;15.70;99.90;;;;;;5071529;28;20044;-64
2022/06/17 04:50:24;;;;;;;12.70;8.55;;;15.70;99.90;;;;;;5071109;28;20036;-65
2022/06/17 04:52:51;;;;;;;8.98;7.30;;;15.70;99.90;;;;;;5069758;28;20060;-64
2022/06/17 04:55:40;;;;;;;10.35;8.13;;;15.70;99.90;;;;;;5071378;28;20044;-65
2022/06/17 04:58:06;;;;;;;11.30;8.50;;;15.80;99.90;;;;;;5070106;28;20044;-65
2022/06/17 05:00:32;;;;;;;11.57;7.93;;;15.80;99.90;;;;;;5071150;28;20423;-65
2022/06/17 05:02:57;;;;;;;11.13;8.30;;;15.80;99.90;;;;;;5071116;28;20047;-64
2022/06/17 05:05:37;;;;;;;10.23;8.00;;;15.80;99.90;;;;;;5071332;28;20422;-64
2022/06/17 05:08:12;;;;;;;10.60;8.32;;;15.90;99.90;;;;;;5070496;28;20479;-62
2022/06/17 05:10:43;;;;;;;9.73;7.65;;;15.90;99.90;;;;;;5070715;28;20043;-63
2022/06/17 05:13:29;;;;;;;8.77;7.88;;;15.90;99.90;;;;;;5069673;28;20051;-62
2022/06/17 05:15:55;;;;;;;9.65;7.60;;;16.00;99.90;;;;;;5071114;28;20483;-64
2022/06/17 05:18:21;;;;;;;11.68;7.75;;;15.90;99.90;;;;;;5070702;28;20081;-63
2022/06/17 05:20:47;;;;;;;8.43;6.97;;;16.00;99.90;;;;;;5068606;28;20048;-63
2022/06/17 05:23:15;;;;;;;10.73;7.10;;;16.00;99.90;;;;;;5065865;28;20044;-63
2022/06/17 05:25:44;;;;;;;9.57;6.82;;;16.10;99.90;;;;;;5085156;28;20040;-62
2022/06/17 05:28:21;;;;;;;13.15;7.65;;;16.10;99.90;;;;;;5068891;28;20113;-64
2022/06/17 05:30:52;;;;;;;13.48;8.05;;;16.20;99.90;;;;;;5070217;28;20600;-62
2022/06/17 05:33:19;;;;;;;11.55;7.05;;;16.20;99.90;;;;;;5070233;28;20052;-62
2022/06/17 05:35:45;;;;;;;11.75;7.45;;;16.30;99.90;;;;;;5067675;28;20040;-63
2022/06/17 05:38:11;;;;;;;8.52;6.43;;;16.30;99.90;;;;;;5068590;28;20410;-62
2022/06/17 05:40:37;;;;;;;11.10;7.78;;;16.30;99.90;;;;;;5068760;28;20479;-62
2022/06/17 05:43:04;;;;;;;11.63;7.45;;;16.40;99.90;;;;;;5070133;28;20067;-63
2022/06/17 05:45:30;;;;;;;10.45;6.70;;;16.40;99.90;;;;;;5070101;28;20437;-63
2022/06/17 05:47:55;;;;;;;11.88;7.60;;;16.50;99.90;;;;;;5051845;28;20044;-63
2022/06/17 05:50:23;;;;;;;10.52;7.65;;;16.50;99.90;;;;;;5068691;28;20044;-62
2022/06/17 05:52:57;;;;;;;13.00;8.27;;;16.60;99.90;;;;;;5069123;28;20048;-64
2022/06/17 05:55:25;;;;;;;14.15;8.25;;;16.60;99.90;;;;;;5068701;28;20055;-63
2022/06/17 05:57:51;;;;;;;10.45;8.30;;;16.60;99.90;;;;;;5069944;28;20438;-62
2022/06/17 06:00:18;;;;;;;11.57;8.10;;;16.70;99.90;;;;;;5068774;28;20048;-62
2022/06/17 06:02:44;;;;;;;13.30;8.60;;;16.70;99.90;;;;;;5069913;28;20039;-63
2022/06/17 06:05:14;;;;;;;15.10;9.38;;;16.80;99.90;;;;;;5070523;28;20029;-62
2022/06/17 06:07:39;;;;;;;10.05;8.27;;;16.90;99.90;;;;;;5070311;28;20101;-63
2022/06/17 06:10:07;;;;;;;13.73;9.30;;;16.90;99.90;;;;;;5068576;28;20048;-62
2022/06/17 06:15:17;;;;;;;11.60;9.07;;;17.00;99.90;;;;;;5069987;28;20048;-63
2022/06/17 06:17:47;;;;;;;11.90;8.68;;;17.00;99.90;;;;;;5069760;28;20040;-63
2022/06/17 06:20:14;;;;;;;10.07;8.68;;;17.10;99.90;;;;;;5069441;28;20052;-63
2022/06/17 06:22:39;;;;;;;12.82;8.30;;;17.10;99.90;;;;;;5068829;28;20082;-62
2022/06/17 06:25:05;;;;;;;13.65;7.95;;;17.20;99.90;;;;;;5068706;28;20041;-63
2022/06/17 06:27:31;;;;;;;12.38;8.52;;;17.20;99.90;;;;;;5068727;28;20079;-62
2022/06/17 06:29:57;;;;;;;11.35;8.02;;;17.20;99.90;;;;;;5051909;28;20088;-62
2022/06/17 06:32:22;;;;;;;13.07;7.70;;;17.30;99.90;;;;;;5069574;28;20048;-63
2022/06/17 06:34:48;;;;;;;11.73;8.15;;;17.40;99.90;;;;;;5068402;28;20086;-64
2022/06/17 06:37:14;;;;;;;10.45;8.30;;;17.50;99.90;;;;;;5069241;28;20082;-62
2022/06/17 06:39:40;;;;;;;9.48;8.07;;;17.60;99.90;;;;;;5068452;28;20041;-63
2022/06/17 06:42:06;;;;;;;11.32;8.10;;;17.70;99.90;;;;;;5069619;28;20550;-63
2022/06/17 06:44:32;;;;;;;11.52;8.00;;;17.80;99.90;;;;;;5068332;28;20040;-62
2022/06/17 06:46:58;;;;;;;10.65;7.82;;;17.90;99.90;;;;;;5069559;28;20063;-63
2022/06/17 06:49:23;;;;;;;13.90;9.05;;;18.00;99.90;;;;;;5069358;28;20471;-63
2022/06/17 06:51:49;;;;;;;10.00;7.35;;;18.10;99.90;;;;;;5068310;28;20128;-64
2022/06/17 06:54:15;;;;;;;12.15;8.85;;;18.20;99.90;;;;;;5069489;28;20056;-64
2022/06/17 06:56:40;;;;;;;11.00;7.90;;;18.30;99.90;;;;;;5069600;28;20070;-63
2022/06/17 06:59:06;;;;;;;8.90;7.63;;;18.40;99.90;;;;;;5069682;28;20029;-62
2022/06/17 07:01:31;;;;;;;10.75;7.57;;;18.50;99.90;;;;;;5067988;28;20510;-62
2022/06/17 07:03:57;;;;;;;10.35;7.00;;;18.60;99.90;;;;;;5069449;28;20513;-63
2022/06/17 07:06:23;;;;;;;11.38;7.25;;;18.70;99.90;;;;;;5067910;28;20156;-63
2022/06/17 07:08:48;;;;;;;11.45;7.80;;;18.80;99.90;;;;;;5069341;28;20052;-62
2022/06/17 07:11:16;;;;;;;8.70;7.80;;;18.80;99.90;;;;;;5069309;28;20029;-63
2022/06/17 07:13:42;;;;;;;9.27;7.13;;;18.90;99.90;;;;;;5066203;28;20032;-62
2022/06/17 07:16:10;;;;;;;9.43;7.55;;;19.00;99.90;;;;;;5067615;28;20040;-63
2022/06/17 07:18:37;;;;;;;10.43;7.30;;;19.10;99.90;;;;;;5067523;28;20051;-63
2022/06/17 07:21:06;;;;;;;8.82;6.78;;;19.20;99.90;;;;;;5066548;28;20037;-62
2022/06/17 07:23:35;;;;;;;11.88;7.32;;;19.40;99.90;;;;;;5067415;28;20044;-62
2022/06/17 07:26:22;;;;;;;9.10;6.97;;;19.40;99.90;;;;;;5067553;28;20051;-63
2022/06/17 07:28:52;;;;;;;14.13;6.50;;;19.70;99.90;;;;;;5067412;28;20075;-63
2022/06/17 07:31:18;;;;;;;9.40;6.70;;;19.90;99.90;;;;;;5069191;28;20491;-63
2022/06/17 07:33:44;;;;;;;8.88;6.30;;;20.20;99.90;;;;;;5068961;28;20078;-63
2022/06/17 07:41:50;;;;;;;9.95;5.53;;;20.60;99.90;;;;;;5067879;28;22662;-63
2022/06/17 07:44:17;;;;;;;5.55;5.00;;;20.60;99.90;;;;;;5051514;28;20052;-62
2022/06/17 07:46:43;;;;;;;9.30;5.18;;;20.70;99.90;;;;;;5071138;28;20041;-64
2022/06/17 07:49:10;;;;;;;11.00;4.90;;;20.90;99.90;;;;;;5071431;28;20047;-63
2022/06/17 07:51:35;;;;;;;7.95;4.75;;;21.00;99.90;;;;;;5072452;28;20055;-63
2022/06/17 07:54:01;;;;;;;6.38;4.55;;;21.20;99.90;;;;;;5072519;28;20375;-63
2022/06/17 07:56:27;;;;;;;8.63;4.60;;;21.50;99.90;;;;;;5072515;28;20134;-64
2022/06/17 07:58:52;;;;;;;11.60;4.40;;;21.60;99.90;;;;;;5071029;28;20045;-63
2022/06/17 08:01:18;;;;;;;8.55;4.22;;;21.70;99.90;;;;;;5070968;28;20174;-65
2022/06/17 08:03:44;;;;;;;7.55;3.88;;;21.60;99.90;;;;;;5072268;28;20044;-63
2022/06/17 08:06:13;;;;;;;5.07;3.35;;;21.60;99.90;;;;;;5071086;28;20033;-62
2022/06/17 08:08:40;;;;;;;5.93;3.55;;;21.60;99.90;;;;;;5070921;28;20087;-63
2022/06/17 08:11:06;;;;;;;8.77;4.32;;;21.60;99.90;;;;;;5070968;28;20455;-64
2022/06/17 08:13:32;;;;;;;6.82;3.90;;;21.70;99.90;;;;;;5072127;28;20111;-63
2022/06/17 08:16:01;;;;;;;7.53;3.42;;;21.70;99.90;;;;;;5071902;28;20048;-63
2022/06/17 08:18:27;;;;;;;4.80;3.38;;;21.80;99.90;;;;;;5072056;28;20040;-63
2022/06/17 08:20:53;;;;;;;5.80;3.30;;;21.80;99.90;;;;;;5070569;28;20072;-63
2022/06/17 08:23:19;;;;;;;5.13;3.17;;;21.90;99.90;;;;;;5072302;28;20075;-63
2022/06/17 08:25:45;;;;;;;4.95;3.47;;;22.00;99.90;;;;;;5072157;28;20037;-63
2022/06/17 08:28:14;;;;;;;5.72;3.10;;;22.10;99.90;;;;;;5071975;28;20040;-63
2022/06/17 08:30:46;;;;;;;6.10;2.95;;;22.30;99.90;;;;;;5054021;28;20056;-63
2022/06/17 08:33:13;;;;;;;6.63;3.70;;;22.50;99.90;;;;;;5070710;28;20049;-63
2022/06/17 08:35:42;;;;;;;5.45;3.45;;;22.70;99.90;;;;;;5070476;28;20044;-64
2022/06/17 08:38:18;;;;;;;7.35;3.35;;;22.80;99.90;;;;;;5071363;28;20140;-64
2022/06/17 08:40:57;;;;;;;4.15;2.90;;;22.80;99.90;;;;;;5071891;28;20044;-62
2022/06/17 08:44:02;;;;;;;6.82;3.40;;;22.90;99.90;;;;;;5071765;28;20033;-63
2022/06/17 08:46:31;;;;;;;5.55;3.95;;;22.90;99.90;;;;;;5032150;28;20115;-64
2022/06/17 08:49:29;;;;;;;6.90;3.33;;;22.70;99.90;;;;;;5049271;28;20055;-63
2022/06/17 08:52:31;;;;;;;5.57;3.40;;;22.60;99.90;;;;;;5049214;28;20052;-63
2022/06/17 08:55:02;;;;;;;;;;;22.40;99.90;;;;;;5049551;28;20037;-64
2022/06/17 08:57:47;;;;;;;4.78;3.05;;;22.30;99.90;;;;;;5032266;28;20346;-63
2022/06/17 09:00:20;;;;;;;7.60;3.67;;;22.30;99.90;;;;;;5015241;28;20045;-64
2022/06/17 09:03:24;;;;;;;6.82;3.25;;;22.30;99.90;;;;;;5049037;28;20099;-63
2022/06/17 09:06:08;;;;;;;5.10;3.28;;;22.30;99.90;;;;;;5047034;28;20067;-63
2022/06/17 09:09:13;;;;;;;5.93;3.50;;;22.30;99.90;;;;;;5031760;28;20045;-62
2022/06/17 09:12:11;;;;;;;7.07;4.18;;;22.40;99.90;;;;;;5048265;28;20083;-63
2022/06/17 09:14:59;;;;;;;8.05;3.97;;;22.60;99.90;;;;;;5048447;28;20047;-64
2022/06/17 09:17:46;;;;;;;5.82;3.70;;;23.00;99.90;;;;;;4987688;28;20050;-63
2022/06/17 09:20:17;;;;;;;7.40;4.07;;;23.30;99.90;;;;;;4989155;28;20046;-63
2022/06/17 09:22:55;;;;;;;7.68;4.40;;;23.60;99.90;;;;;;4976229;28;20508;-63
2022/06/17 09:25:28;;;;;;;6.22;3.88;;;23.80;99.90;;;;;;4992040;28;20041;-63
2022/06/17 09:27:56;;;;;;;6.28;3.80;;;23.90;99.90;;;;;;5008644;28;20046;-64
2022/06/17 09:30:32;;;;;;;7.15;3.83;;;24.00;99.90;;;;;;5008395;28;20080;-63
2022/06/17 09:33:29;;;;;;;5.00;3.90;;;24.10;99.40;;;;;;4992031;28;20156;-64
2022/06/17 09:36:03;;;;;;;6.38;3.25;;;24.00;99.00;;;;;;4987285;28;20049;-63
2022/06/17 09:38:55;;;;;;;9.63;3.03;;;24.20;99.50;;;;;;4991926;28;20056;-64
2022/06/17 09:41:31;;;;;;;4.40;2.63;;;24.30;99.00;;;;;;5008898;28;20726;-63
2022/06/17 09:44:10;;;;;;;5.28;3.35;;;24.20;98.90;;;;;;5008769;28;20124;-63
2022/06/17 09:46:42;;;;;;;6.95;3.55;;;24.20;98.50;;;;;;5008332;28;20045;-63
2022/06/17 09:49:16;;;;;;;4.10;2.90;;;24.40;98.60;;;;;;5008374;28;20049;-64
2022/06/17 09:51:53;;;;;;;5.63;2.63;;;24.60;98.20;;;;;;4992186;28;20638;-63
2022/06/17 09:54:28;;;;;;;4.90;2.78;;;24.80;97.60;;;;;;5035896;28;20058;-63
2022/06/17 09:57:09;;;;;;;4.55;3.13;;;25.00;97.40;;;;;;5052224;28;20444;-64
2022/06/17 09:59:43;;;;;;;6.32;3.05;;;25.10;97.10;;;;;;5068738;28;20094;-64
2022/06/17 10:02:29;;;;;;;4.95;2.70;;;25.10;96.80;;;;;;5070173;28;20060;-63
2022/06/17 10:04:56;;;;;;;5.72;3.03;;;25.00;96.00;;;;;;5069441;28;20052;-64
2022/06/17 10:07:39;;;;;;;5.88;2.95;;;24.80;96.00;;;;;;5068628;28;20048;-64
2022/06/17 10:10:10;;;;;;;5.53;3.25;;;24.80;96.40;;;;;;5070234;28;20044;-64
2022/06/17 10:13:19;;;;;;;9.90;2.97;;;24.80;96.00;;;;;;5070096;28;20040;-63
2022/06/17 10:18:49;;;;;;;7.05;3.42;;;24.80;96.10;;;;;;5068678;28;20050;-63
2022/06/17 10:21:45;;;;;;;5.65;3.17;;;24.90;95.60;;;;;;5069974;28;20074;-63
2022/06/17 10:24:37;;;;;;;6.38;2.90;;;24.90;96.30;;;;;;5066813;28;20055;-62
2022/06/17 10:27:19;;;;;;;4.55;3.40;;;25.00;95.00;;;;;;5068592;28;20503;-63
2022/06/17 10:30:06;;;;;;;;;;;25.00;94.90;;;;;;5069022;28;20045;-62
2022/06/17 10:32:36;;;;;;;6.47;2.97;;;25.00;94.60;;;;;;5069983;28;19916;-63
2022/06/17 10:35:06;;;;;;;4.68;2.55;;;25.00;94.90;;;;;;5069977;28;20060;-63
2022/06/17 10:37:35;;;;;;;4.22;2.95;;;25.00;95.10;;;;;;5069399;28;20087;-63
2022/06/17 10:40:02;;;;;;;6.20;2.75;;;24.90;95.10;;;;;;5068662;28;20035;-63
2022/06/17 10:42:28;;;;;;;7.03;3.17;;;24.80;94.50;;;;;;5069692;28;20086;-64
2022/06/17 10:44:59;;;;;;;3.75;2.60;;;24.60;94.00;;;;;;5068404;28;20040;-64
2022/06/17 10:47:36;;;;;;;11.15;3.53;;;24.60;94.50;;;;;;5068604;28;20115;-63
2022/06/17 10:50:27;;;;;;;4.68;2.92;;;24.60;94.00;;;;;;5068353;28;20051;-63
2022/06/17 10:52:56;;;;;;;5.30;3.00;;;24.70;94.30;;;;;;5068402;28;20044;-63
2022/06/17 10:55:36;;;;;;;5.65;3.05;;;24.90;94.90;;;;;;5065086;28;20124;-63
2022/06/17 10:58:32;;;;;;;5.32;2.80;;;25.00;95.50;;;;;;5050924;28;20060;-63
2022/06/17 11:01:04;;;;;;;5.40;3.20;;;25.10;94.20;;;;;;5067925;28;20037;-63
2022/06/17 11:03:39;;;;;;;7.70;3.50;;;25.00;93.80;;;;;;5069202;28;20029;-63
2022/06/17 11:06:22;;;;;;;8.25;3.35;;;25.00;94.50;;;;;;5067869;28;20123;-64
2022/06/17 11:08:48;;;;;;;7.45;2.97;;;25.00;94.30;;;;;;5068002;28;20481;-64
2022/06/17 11:14:02;;;;;;;4.93;2.67;;;25.20;94.50;;;;;;5067940;28;20124;-63
2022/06/17 11:16:35;;;;;;;3.90;2.65;;;25.30;94.40;;;;;;5068841;28;20091;-63
2022/06/17 11:19:06;;;;;;;5.18;2.92;;;25.30;94.30;;;;;;5069968;28;20068;-64
2022/06/17 11:21:36;;;;;;;5.30;2.90;;;25.30;93.70;;;;;;5071728;28;20036;-63
2022/06/17 11:24:04;;;;;;;4.55;2.65;;;25.20;93.70;;;;;;5072579;28;20054;-63
2022/06/17 11:26:32;;;;;;;3.45;2.65;;;25.20;93.80;;;;;;5072187;28;20036;-63
2022/06/17 11:29:04;;;;;;;5.18;2.60;;;25.30;93.60;;;;;;5071881;28;20086;-62
2022/06/17 11:31:38;;;;;;;4.65;2.72;;;25.30;94.30;;;;;;5072757;28;20041;-64
2022/06/17 11:34:24;;;;;;;4.45;2.88;;;25.40;94.00;;;;;;5073059;28;20040;-65
2022/06/17 11:36:57;;;;;;;4.10;3.15;;;25.60;94.30;;;;;;5072466;28;20051;-63
2022/06/17 11:39:32;;;;;;;4.85;2.95;;;25.80;92.90;;;;;;5055282;28;20364;-63
2022/06/17 11:42:00;;;;;;;3.42;2.40;;;26.10;94.40;;;;;;5073146;28;20041;-63
2022/06/17 11:44:26;;;;;;;6.53;3.15;;;26.10;93.30;;;;;;5070440;28;20040;-64
2022/06/17 11:46:56;;;;;;;5.13;2.50;;;26.40;93.20;;;;;;5072720;28;20395;-63
2022/06/17 11:49:22;;;;;;;6.97;3.03;;;26.60;92.60;;;;;;5072668;28;20036;-63
2022/06/17 11:51:55;;;;;;;5.38;3.00;;;26.70;91.80;;;;;;5070166;28;20071;-64
2022/06/17 11:54:29;;;;;;;4.55;2.90;;;26.80;91.70;;;;;;5072553;28;20127;-64
2022/06/17 11:56:55;;;;;;;5.88;3.08;;;26.80;91.60;;;;;;5071346;28;20047;-63
2022/06/17 11:59:26;;;;;;;6.10;3.33;;;26.80;91.50;;;;;;5072966;28;20731;-65
2022/06/17 12:01:54;;;;;;;8.93;3.13;;;26.90;91.20;;;;;;5072335;28;20048;-65
2022/06/17 12:04:59;;;;;;;6.82;3.17;;;26.80;90.60;;;;;;5070885;28;20090;-64
2022/06/17 12:07:46;;;;;;;5.22;2.90;;;26.90;91.10;;;;;;5072340;28;20460;-64
2022/06/17 12:10:27;;;;;;;7.35;3.05;;;26.90;91.00;;;;;;5072108;28;20041;-64
2022/06/17 12:12:58;;;;;;;5.75;3.20;;;26.90;91.00;;;;;;5071978;28;20188;-63
2022/06/17 12:15:36;;;;;;;3.95;3.08;;;26.90;90.60;;;;;;5070871;28;20040;-62
2022/06/17 12:18:04;;;;;;;6.85;3.17;;;26.80;90.00;;;;;;5072224;28;20037;-63
2022/06/17 12:20:57;;;;;;;5.57;3.05;;;26.80;90.40;;;;;;5070821;28;20047;-63
2022/06/17 12:23:41;;;;;;;4.43;2.42;;;26.80;90.20;;;;;;5072149;28;20040;-63
2022/06/17 12:26:22;;;;;;;5.78;2.70;;;26.80;90.70;;;;;;5070599;28;20078;-64
2022/06/17 12:28:58;;;;;;;5.85;2.75;;;26.80;90.10;;;;;;5070632;28;20044;-63
2022/06/17 12:31:30;;;;;;;6.05;3.35;;;26.90;91.00;;;;;;5070104;28;20123;-64
2022/06/17 12:34:10;;;;;;;5.88;2.88;;;26.80;89.60;;;;;;5071802;28;20044;-64
2022/06/17 12:36:58;;;;;;;4.22;2.65;;;26.70;90.00;;;;;;5071559;28;20063;-65
2022/06/17 12:39:56;;;;;;;6.07;3.40;;;26.80;90.30;;;;;;5070380;28;20048;-64
2022/06/17 12:42:34;;;;;;;6.50;2.90;;;26.80;90.00;;;;;;5070588;28;20040;-64
2022/06/17 12:45:09;;;;;;;7.68;2.50;;;26.90;90.10;;;;;;5070369;28;20051;-64
2022/06/17 12:48:02;;;;;;;4.60;2.90;;;26.90;90.30;;;;;;5068117;28;20116;-65
2022/06/17 12:54:04;;;;;;;10.10;3.30;;;26.90;90.30;;;;;;5071089;28;20493;-64
2022/06/17 12:57:02;;;;;;;8.38;2.92;;;27.00;89.90;;;;;;5071104;28;20101;-63
2022/06/17 12:59:52;;;;;;;4.90;2.50;;;27.00;90.30;;;;;;5071052;28;20086;-64
2022/06/17 13:02:33;;;;;;;6.22;2.80;;;27.10;90.70;;;;;;5070778;28;20534;-64
2022/06/17 13:05:13;;;;;;;6.70;2.63;;;27.10;89.70;;;;;;5052878;28;20032;-64
2022/06/17 13:07:55;;;;;;;6.70;3.25;;;27.00;88.10;;;;;;5069534;28;20442;-64
2022/06/17 13:10:44;;;;;;;4.75;2.80;;;27.00;89.40;;;;;;5070719;28;20047;-63
2022/06/17 13:13:22;;;;;;;5.75;3.15;;;26.90;89.60;;;;;;5061233;28;20186;-65
2022/06/17 13:16:04;;;;;;;3.35;2.78;;;26.90;90.00;;;;;;5070694;28;20082;-64
2022/06/17 13:18:55;;;;;;;6.82;2.90;;;26.80;89.70;;;;;;5070614;28;20517;-63
2022/06/17 13:21:21;;;;;;;8.60;2.90;;;26.80;89.80;;;;;;5069561;28;20047;-63
2022/06/17 13:24:03;;;;;;;6.50;2.92;;;26.70;89.50;;;;;;5069763;28;20540;-64
2022/06/17 13:26:43;;;;;;;8.40;3.28;;;26.60;88.90;;;;;;5069373;28;20123;-64
2022/06/17 13:29:33;;;;;;;5.13;2.83;;;26.60;89.80;;;;;;5069421;28;20483;-64
2022/06/17 13:32:21;;;;;;;4.25;2.40;;;26.70;89.10;;;;;;5070541;28;20040;-65
2022/06/17 13:35:19;;;;;;;5.82;2.72;;;26.60;89.60;;;;;;5069720;28;20502;-63